GCHI/VDE METAR and TAF weather

Enter ICAO airport designator
Station Type Date Time Source
GCHI METAR 2021/05/14 14:00 UTC NOAA

GCHI 141400Z 36018KT 9999 FEW022 23/16 Q1021


Station Type Date Time Source
GCHI Decoded METAR 2021/05/14 14:00 UTC NOAA

Hierro / Aeropuerto, Spain (GCHI) 27-49N 017-53W 32M
May 14, 2021 - 10:00 AM EDT / 2021.05.14 1400 UTC
Wind: from the N (360 degrees) at 21 MPH (18 KT):0
Visibility: greater than 7 mile(s):0
Sky conditions: mostly clear
Temperature: 73 F (23 C)
Dew Point: 60 F (16 C)
Relative Humidity: 64%
Pressure (altimeter): 30.15 in. Hg (1021 hPa)
ob: GCHI 141400Z 36018KT 9999 FEW022 23/16 Q1021
cycle: 14

Station Type Date Time Source
GCHI TAF 2021/05/14 15:00 UTC NOAA

TAF GCHI 141400Z 1415/1515 01018KT 9999 FEW020 TX23/1514Z TN19/1506Z PROB40
TEMPO 1415/1515 36018G28KT

Example: see airport list